Huvudsida
METAR-TAF:

METAR-TAF

Flygplatser :

Sandane, Norge

Sandane flygplats. Anda

latitud: 61-50N, longitud: 006-07E, höjd: 6 m

Aktuellt väderrapport

Denna rapport gjordes för 7 timmar och 21 minuter sedan, klockan 19:50 UTC
Vind 5 kt från syd/sydost
Temperatur 0°C
Fuktighet 69%
Tryck 992 hPa
Sikt 10 km eller mer
Få moln på en höjd av 3400 ft
Brutna moln på en höjd av 4100 ft

METAR: ENSD 181950Z 16005KT 9999 FEW034 BKN041 00/M05 Q0992 RMK WIND 1138FT VRB02KT

Tid: 04:11 (03:11 UTC)


TAF: saknas

Aktuella väderrapporter och prognoser från 4000 flygplatser (METAR- och TAF-rapporter).

De tillgängliga stationerna syns som gula och röda prickar på kartan.

För musen över prickarna för att se namnen på stationerna.

Klicka sedan för att få väderrapporter och prognoser.

För att ändra kartan: Klicka på de gröna knapparna med ett svart kors på för att zooma in; den gröna knappen med ett streck på för att zooma ut; eller på de gröna pilarna för angränsande kartor.


METAR-TAF: